Time;durP1;ratioP1;P1;durP2;ratioP2;P2;SDS_P1;SDS_P2;PMS_P1;PMS_P2;Temp;Humidity;BMP_temperature;BMP_pressure;BME280_temperature;BME280_humidity;BME280_pressure;Samples;Min_cycle;Max_cycle;Signal;HPM_P1;HPM_P2
2024/03/13 00:01:51;;;;;;;3.65;2.00;;;;;;;;;;5102156;28;20031;-65
2024/03/13 00:04:17;;;;;;;3.35;2.22;;;;;;;;;;5096181;28;20032;-66
2024/03/13 00:06:44;;;;;;;6.22;2.80;;;;;;;;;;5078215;28;20489;-64
2024/03/13 00:09:10;;;;;;;5.65;3.08;;;;;;;;;;5094445;27;20450;-67
2024/03/13 00:11:37;;;;;;;6.22;2.00;;;;;;;;;;5090337;28;20547;-67
2024/03/13 00:14:05;;;;;;;3.38;2.17;;;;;;;;;;5090518;28;20085;-65
2024/03/13 00:16:31;;;;;;;3.65;2.22;;;;;;;;;;5092668;28;20032;-65
2024/03/13 00:18:58;;;;;;;5.07;2.28;;;;;;;;;;5078561;28;20454;-66
2024/03/13 00:21:27;;;;;;;6.95;2.53;;;;;;;;;;5098244;28;20632;-65
2024/03/13 00:23:53;;;;;;;7.20;2.65;;;;;;;;;;5080630;28;20936;-64
2024/03/13 00:26:22;;;;;;;3.40;1.92;;;;;;;;;;5075322;28;20516;-65
2024/03/13 00:28:48;;;;;;;6.30;2.08;;;;;;;;;;5093315;28;20465;-65
2024/03/13 00:31:15;;;;;;;2.35;1.90;;;;;;;;;;5098140;28;20031;-65
2024/03/13 00:33:41;;;;;;;4.63;1.73;;;;;;;;;;5093499;28;20036;-65
2024/03/13 00:36:10;;;;;;;2.53;1.85;;;;;;;;;;5091308;28;20732;-65
2024/03/13 00:38:36;;;;;;;5.57;1.77;;;;;;;;;;5076598;28;20043;-65
2024/03/13 00:41:02;;;;;;;3.30;1.85;;;;;;;;;;5089635;28;20046;-65
2024/03/13 00:43:30;;;;;;;4.90;1.98;;;;;;;;;;5096594;28;20050;-65
2024/03/13 00:45:59;;;;;;;3.00;2.00;;;;;;;;;;5094100;28;20092;-65
2024/03/13 00:48:31;;;;;;;2.83;2.35;;;;;;;;;;5091682;28;20023;-65
2024/03/13 00:50:57;;;;;;;7.55;2.35;;;;;;;;;;5091417;28;20035;-66
2024/03/13 00:53:23;;;;;;;4.32;1.92;;;;;;;;;;5096484;28;20019;-71
2024/03/13 00:55:49;;;;;;;6.18;2.17;;;;;;;;;;5098116;28;20019;-72
2024/03/13 00:58:16;;;;;;;8.60;2.55;;;;;;;;;;5096048;27;20308;-71
2024/03/13 01:00:42;;;;;;;10.27;2.53;;;;;;;;;;5076052;28;20039;-71
2024/03/13 01:03:09;;;;;;;6.80;2.38;;;;;;;;;;5096589;28;20031;-71
2024/03/13 01:05:35;;;;;;;6.55;1.70;;;;;;;;;;5092404;28;20020;-72
2024/03/13 01:08:02;;;;;;;4.93;2.28;;;;;;;;;;5099519;28;20038;-71
2024/03/13 01:10:28;;;;;;;1.98;1.80;;;;;;;;;;5095613;28;20050;-72
2024/03/13 01:12:55;;;;;;;9.80;2.55;;;;;;;;;;5100669;28;20102;-71
2024/03/13 01:15:21;;;;;;;5.55;2.63;;;;;;;;;;5076452;28;20024;-71
2024/03/13 01:17:47;;;;;;;9.93;2.40;;;;;;;;;;5094390;28;20413;-71
2024/03/13 01:20:17;;;;;;;7.35;2.53;;;;;;;;;;5097555;28;20501;-72
2024/03/13 01:22:48;;;;;;;6.00;1.92;;;;;;;;;;5075515;28;20054;-71
2024/03/13 01:25:14;;;;;;;7.38;2.17;;;;;;;;;;5090380;28;20023;-72
2024/03/13 01:27:45;;;;;;;5.53;2.60;;;;;;;;;;5091702;28;20109;-71
2024/03/13 01:30:14;;;;;;;7.85;2.83;;;;;;;;;;5075416;28;20028;-71
2024/03/13 01:32:43;;;;;;;5.80;1.88;;;;;;;;;;5089837;28;20060;-70
2024/03/13 01:35:10;;;;;;;4.30;2.10;;;;;;;;;;5079204;28;20019;-71
2024/03/13 01:37:55;;;;;;;2.03;1.83;;;;;;;;;;5098380;28;20040;-73
2024/03/13 01:40:26;;;;;;;4.18;2.42;;;;;;;;;;5065983;28;20107;-72
2024/03/13 01:57:13;;;;;;;9.40;2.45;;;;;;;;;;5043881;28;20372;-71
2024/03/13 01:59:49;;;;;;;10.80;3.20;;;;;;;;;;5096618;28;20066;-71
2024/03/13 02:02:27;;;;;;;5.95;2.63;;;;;;;;;;5097761;28;20024;-72
2024/03/13 02:04:54;;;;;;;11.82;2.35;;;;;;;;;;5097614;28;20515;-72
2024/03/13 02:07:21;;;;;;;5.22;2.33;;;;;;;;;;5090442;28;20020;-73
2024/03/13 02:09:49;;;;;;;3.67;2.40;;;;;;;;;;5090377;28;20024;-70
2024/03/13 02:12:15;;;;;;;7.13;2.63;;;;;;;;;;5091617;28;20032;-71
2024/03/13 02:14:42;;;;;;;7.38;2.60;;;;;;;;;;5070829;28;20035;-71
2024/03/13 02:17:09;;;;;;;7.13;2.90;;;;;;;;;;5090720;28;20560;-72
2024/03/13 02:19:40;;;;;;;2.10;1.67;;;;;;;;;;5099685;28;20036;-72
2024/03/13 02:22:07;;;;;;;3.10;1.92;;;;;;;;;;5094818;28;20105;-73
2024/03/13 02:24:33;;;;;;;4.22;2.22;;;;;;;;;;5091574;28;20107;-72
2024/03/13 02:27:00;;;;;;;2.50;1.95;;;;;;;;;;5095056;28;20131;-73
2024/03/13 02:29:28;;;;;;;5.90;2.42;;;;;;;;;;5074098;28;20036;-73
2024/03/13 02:31:54;;;;;;;5.60;2.40;;;;;;;;;;5089628;28;20020;-73
2024/03/13 02:34:21;;;;;;;7.68;2.05;;;;;;;;;;5099334;28;20023;-72
2024/03/13 02:36:47;;;;;;;4.13;2.33;;;;;;;;;;5092366;28;20039;-73
2024/03/13 02:39:18;;;;;;;4.80;1.92;;;;;;;;;;5093869;28;20038;-73
2024/03/13 02:41:45;;;;;;;1.27;1.27;;;;;;;;;;5088715;28;20481;-72
2024/03/13 02:44:11;;;;;;;1.95;1.77;;;;;;;;;;5098729;28;20089;-72
2024/03/13 02:46:38;;;;;;;8.70;1.77;;;;;;;;;;5091256;28;20134;-72
2024/03/13 02:49:04;;;;;;;5.60;1.35;;;;;;;;;;5074856;28;20077;-72
2024/03/13 02:51:31;;;;;;;2.40;1.38;;;;;;;;;;5090108;28;20024;-72
2024/03/13 02:53:57;;;;;;;6.95;1.65;;;;;;;;;;5081443;28;20046;-72
2024/03/13 02:56:23;;;;;;;3.90;1.48;;;;;;;;;;5099282;28;20038;-72
2024/03/13 02:58:52;;;;;;;1.58;1.48;;;;;;;;;;5087342;28;20036;-71
2024/03/13 03:01:18;;;;;;;1.50;1.48;;;;;;;;;;5098367;28;20114;-72
2024/03/13 03:03:44;;;;;;;2.10;1.50;;;;;;;;;;5099015;28;20024;-71
2024/03/13 03:06:10;;;;;;;2.45;1.45;;;;;;;;;;5094602;28;20027;-74
2024/03/13 03:08:40;;;;;;;2.67;1.88;;;;;;;;;;5093891;28;20113;-72
2024/03/13 03:11:06;;;;;;;1.10;1.10;;;;;;;;;;5101015;28;20023;-73
2024/03/13 03:13:35;;;;;;;4.32;1.48;;;;;;;;;;5101596;28;20476;-72
2024/03/13 03:16:01;;;;;;;4.32;2.35;;;;;;;;;;5092437;27;20366;-72
2024/03/13 03:18:28;;;;;;;1.60;1.50;;;;;;;;;;5098857;28;20412;-72
2024/03/13 03:20:54;;;;;;;4.45;1.60;;;;;;;;;;5091824;28;20027;-72
2024/03/13 03:23:20;;;;;;;1.90;1.40;;;;;;;;;;5106966;28;20046;-73
2024/03/13 03:25:46;;;;;;;3.40;1.38;;;;;;;;;;5102263;28;20028;-74
2024/03/13 03:28:14;;;;;;;5.05;1.50;;;;;;;;;;5076726;28;20031;-72
2024/03/13 03:30:43;;;;;;;3.78;1.35;;;;;;;;;;5094995;28;20016;-73
2024/03/13 03:33:18;;;;;;;2.35;1.25;;;;;;;;;;5096101;28;20028;-73
2024/03/13 03:35:44;;;;;;;;;;;;;;;;;;5084365;28;20642;-73
2024/03/13 03:38:10;;;;;;;;;;;;;;;;;;5099600;28;20006;-73
2024/03/13 03:40:37;;;;;;;1.27;1.27;;;;;;;;;;5103300;28;19912;-73
2024/03/13 03:43:04;;;;;;;1.17;1.17;;;;;;;;;;5097668;28;20036;-73
2024/03/13 03:45:30;;;;;;;1.25;1.20;;;;;;;;;;5089386;27;20728;-71
2024/03/13 03:47:56;;;;;;;1.33;1.33;;;;;;;;;;5104799;28;20024;-72
2024/03/13 03:50:22;;;;;;;3.40;1.30;;;;;;;;;;5096151;28;20032;-73
2024/03/13 03:52:49;;;;;;;2.53;1.50;;;;;;;;;;5098552;28;20035;-72
2024/03/13 03:55:15;;;;;;;2.10;1.25;;;;;;;;;;5098014;28;20065;-73
2024/03/13 03:57:44;;;;;;;1.00;1.00;;;;;;;;;;5086568;28;20024;-72
2024/03/13 04:00:12;;;;;;;6.68;1.50;;;;;;;;;;5096455;27;20024;-72
2024/03/13 04:02:38;;;;;;;2.70;2.00;;;;;;;;;;5096183;28;20089;-72
2024/03/13 04:05:08;;;;;;;1.38;1.27;;;;;;;;;;5093650;28;20419;-73
2024/03/13 04:07:36;;;;;;;1.10;1.10;;;;;;;;;;5095449;28;20020;-72
2024/03/13 04:10:03;;;;;;;1.33;1.15;;;;;;;;;;5090658;27;20059;-73
2024/03/13 04:12:29;;;;;;;1.30;1.27;;;;;;;;;;5091760;27;20024;-73
2024/03/13 04:14:56;;;;;;;3.72;1.27;;;;;;;;;;5069302;28;20035;-72
2024/03/13 04:17:22;;;;;;;3.08;1.27;;;;;;;;;;5094439;27;20032;-71
2024/03/13 04:19:49;;;;;;;1.10;1.10;;;;;;;;;;5095100;28;20035;-72
2024/03/13 04:22:16;;;;;;;1.40;1.30;;;;;;;;;;5093039;27;20054;-73
2024/03/13 04:24:43;;;;;;;2.20;1.65;;;;;;;;;;5081898;28;20074;-73
2024/03/13 04:27:09;;;;;;;1.20;1.20;;;;;;;;;;5090062;28;20027;-73
2024/03/13 04:29:35;;;;;;;4.88;1.52;;;;;;;;;;5100649;27;20031;-73
2024/03/13 04:32:01;;;;;;;2.80;1.50;;;;;;;;;;5097772;28;20032;-72
2024/03/13 04:34:29;;;;;;;1.23;1.20;;;;;;;;;;5095030;28;20043;-72
2024/03/13 04:36:55;;;;;;;1.30;1.20;;;;;;;;;;5091308;28;20042;-72
2024/03/13 04:39:21;;;;;;;2.67;1.58;;;;;;;;;;5098808;28;20028;-72
2024/03/13 04:41:49;;;;;;;1.55;1.45;;;;;;;;;;5093139;27;20392;-72
2024/03/13 04:44:16;;;;;;;2.22;1.40;;;;;;;;;;5092451;28;20116;-72
2024/03/13 04:46:45;;;;;;;2.10;1.50;;;;;;;;;;5089651;28;20035;-73
2024/03/13 04:49:12;;;;;;;3.40;1.30;;;;;;;;;;5078470;28;20466;-72
2024/03/13 04:51:38;;;;;;;1.13;1.13;;;;;;;;;;5084462;28;20032;-74
2024/03/13 04:54:06;;;;;;;1.60;1.35;;;;;;;;;;5102104;28;20054;-73
2024/03/13 04:56:32;;;;;;;3.50;1.38;;;;;;;;;;5097340;28;20027;-73
2024/03/13 04:58:59;;;;;;;1.98;1.20;;;;;;;;;;5093652;28;20157;-73
2024/03/13 05:01:25;;;;;;;2.78;1.60;;;;;;;;;;5097013;28;20035;-73
2024/03/13 05:03:51;;;;;;;1.02;1.02;;;;;;;;;;5092872;28;20023;-73
2024/03/13 05:06:21;;;;;;;2.42;1.40;;;;;;;;;;5099121;28;20036;-73
2024/03/13 05:08:48;;;;;;;1.75;1.65;;;;;;;;;;5096481;28;20491;-74
2024/03/13 05:11:14;;;;;;;1.95;1.30;;;;;;;;;;5091868;28;20016;-74
2024/03/13 05:13:40;;;;;;;1.20;1.20;;;;;;;;;;5089875;28;20467;-73
2024/03/13 05:16:09;;;;;;;1.20;1.20;;;;;;;;;;5091511;27;20373;-74
2024/03/13 05:18:36;;;;;;;3.30;1.52;;;;;;;;;;5094288;28;20099;-73
2024/03/13 05:21:02;;;;;;;1.20;1.20;;;;;;;;;;5074751;28;20043;-73
2024/03/13 05:23:28;;;;;;;3.65;1.40;;;;;;;;;;5094423;28;20043;-73
2024/03/13 05:25:55;;;;;;;2.03;1.17;;;;;;;;;;5089228;28;20042;-73
2024/03/13 05:28:22;;;;;;;3.35;1.23;;;;;;;;;;5080959;28;20035;-73
2024/03/13 05:30:50;;;;;;;1.15;1.15;;;;;;;;;;5091098;27;20077;-73
2024/03/13 05:33:16;;;;;;;8.65;1.50;;;;;;;;;;5096909;28;20040;-73
2024/03/13 05:35:43;;;;;;;1.45;1.13;;;;;;;;;;5088194;28;20354;-73
2024/03/13 05:38:09;;;;;;;2.20;1.25;;;;;;;;;;5091549;28;20392;-73
2024/03/13 05:40:35;;;;;;;1.00;1.00;;;;;;;;;;5098818;28;20031;-73
2024/03/13 05:43:01;;;;;;;4.18;1.38;;;;;;;;;;5079723;28;20038;-73
2024/03/13 05:45:27;;;;;;;1.30;1.30;;;;;;;;;;5094659;28;20314;-74
2024/03/13 05:47:53;;;;;;;1.35;1.35;;;;;;;;;;5080215;28;20465;-73
2024/03/13 05:50:20;;;;;;;1.92;1.40;;;;;;;;;;5092798;28;20499;-74
2024/03/13 05:52:46;;;;;;;1.10;1.10;;;;;;;;;;5090827;28;20506;-73
2024/03/13 05:55:13;;;;;;;3.08;1.35;;;;;;;;;;5094090;28;20020;-74
2024/03/13 05:57:39;;;;;;;1.20;1.20;;;;;;;;;;5092498;28;20437;-73
2024/03/13 06:00:09;;;;;;;4.53;1.52;;;;;;;;;;5100986;28;20084;-73
2024/03/13 06:02:35;;;;;;;1.48;1.35;;;;;;;;;;5080243;28;20046;-73
2024/03/13 06:05:19;;;;;;;3.13;1.58;;;;;;;;;;5102512;28;20392;-74
2024/03/13 06:07:46;;;;;;;2.60;1.20;;;;;;;;;;5089653;28;20496;-74
2024/03/13 06:10:12;;;;;;;1.52;1.40;;;;;;;;;;5083113;28;20127;-73
2024/03/13 06:12:38;;;;;;;1.17;1.17;;;;;;;;;;5077807;28;20024;-73
2024/03/13 06:15:12;;;;;;;1.17;1.17;;;;;;;;;;5091614;28;20135;-73
2024/03/13 06:17:38;;;;;;;1.20;1.20;;;;;;;;;;5103738;27;20024;-73
2024/03/13 06:20:13;;;;;;;1.38;1.10;;;;;;;;;;5097939;28;20032;-73
2024/03/13 06:22:42;;;;;;;1.20;1.10;;;;;;;;;;5099065;28;20481;-73
2024/03/13 06:25:09;;;;;;;1.20;1.20;;;;;;;;;;5097316;28;20426;-74
2024/03/13 06:27:35;;;;;;;1.52;1.23;;;;;;;;;;5082383;28;20068;-73
2024/03/13 06:30:05;;;;;;;1.50;1.40;;;;;;;;;;5098981;28;20043;-73
2024/03/13 06:32:31;;;;;;;3.40;1.40;;;;;;;;;;5096426;28;20114;-73
2024/03/13 06:35:02;;;;;;;1.45;1.35;;;;;;;;;;5099666;28;20040;-74
2024/03/13 06:37:29;;;;;;;1.42;1.33;;;;;;;;;;5080439;28;20047;-73
2024/03/13 06:39:58;;;;;;;0.90;0.90;;;;;;;;;;5103987;28;20775;-73
2024/03/13 06:42:25;;;;;;;1.00;1.00;;;;;;;;;;5091178;28;20106;-73
2024/03/13 06:44:51;;;;;;;1.25;1.25;;;;;;;;;;5070471;28;20020;-73
2024/03/13 06:47:18;;;;;;;1.25;1.25;;;;;;;;;;5091343;28;20143;-73
2024/03/13 06:49:47;;;;;;;1.08;1.08;;;;;;;;;;5100726;28;20020;-73
2024/03/13 06:52:13;;;;;;;2.35;1.60;;;;;;;;;;5101238;28;20113;-73
2024/03/13 06:54:40;;;;;;;1.50;1.40;;;;;;;;;;5098021;28;20503;-73
2024/03/13 06:57:06;;;;;;;1.08;1.08;;;;;;;;;;5091579;27;20111;-74
2024/03/13 06:59:34;;;;;;;1.58;1.48;;;;;;;;;;5101306;27;20028;-76
2024/03/13 07:02:01;;;;;;;1.30;1.30;;;;;;;;;;5099198;28;20031;-74
2024/03/13 07:04:27;;;;;;;2.15;1.23;;;;;;;;;;5097620;28;20031;-75
2024/03/13 07:07:00;;;;;;;1.20;1.20;;;;;;;;;;5090056;28;20066;-75
2024/03/13 07:09:29;;;;;;;1.10;1.10;;;;;;;;;;5099598;28;20424;-77
2024/03/13 07:11:55;;;;;;;1.30;1.25;;;;;;;;;;5104190;28;20047;-75
2024/03/13 07:14:25;;;;;;;1.13;1.13;;;;;;;;;;5104345;28;20027;-75
2024/03/13 07:16:52;;;;;;;1.23;1.20;;;;;;;;;;5081113;27;20051;-75
2024/03/13 07:19:19;;;;;;;1.60;1.20;;;;;;;;;;5100249;28;20058;-75
2024/03/13 07:21:45;;;;;;;1.08;1.08;;;;;;;;;;5100200;28;20031;-75
2024/03/13 07:24:12;;;;;;;1.65;1.50;;;;;;;;;;5083079;28;20036;-75
2024/03/13 07:26:39;;;;;;;1.35;1.23;;;;;;;;;;5100578;27;20023;-74
2024/03/13 07:29:06;;;;;;;1.00;1.00;;;;;;;;;;5102464;27;20031;-75
2024/03/13 07:31:32;;;;;;;1.23;1.23;;;;;;;;;;5101632;28;20510;-75
2024/03/13 07:33:58;;;;;;;1.30;1.30;;;;;;;;;;5106988;28;20036;-74
2024/03/13 07:36:25;;;;;;;1.38;1.30;;;;;;;;;;5102529;27;20489;-75
2024/03/13 07:38:52;;;;;;;1.33;1.23;;;;;;;;;;5106856;28;20032;-75
2024/03/13 07:41:18;;;;;;;1.30;1.20;;;;;;;;;;5101692;28;20458;-75
2024/03/13 07:43:46;;;;;;;2.75;1.25;;;;;;;;;;5103216;28;20437;-75
2024/03/13 07:46:12;;;;;;;2.65;1.38;;;;;;;;;;5100041;27;20027;-75
2024/03/13 07:48:39;;;;;;;2.90;1.45;;;;;;;;;;5108724;27;20484;-74
2024/03/13 07:51:08;;;;;;;1.17;1.17;;;;;;;;;;5102960;27;20024;-74
2024/03/13 07:53:35;;;;;;;1.23;1.20;;;;;;;;;;5085672;28;20034;-74
2024/03/13 07:56:01;;;;;;;3.15;1.27;;;;;;;;;;5099359;28;20097;-75
2024/03/13 07:58:28;;;;;;;1.45;1.38;;;;;;;;;;5096026;28;20515;-74
2024/03/13 08:00:54;;;;;;;1.30;1.30;;;;;;;;;;5095639;28;20024;-75
2024/03/13 08:03:20;;;;;;;1.13;1.13;;;;;;;;;;5098140;28;20028;-74
2024/03/13 08:05:49;;;;;;;1.02;1.02;;;;;;;;;;5099867;28;20024;-75
2024/03/13 08:08:15;;;;;;;1.20;1.20;;;;;;;;;;5092849;28;20393;-73
2024/03/13 08:10:42;;;;;;;1.10;1.10;;;;;;;;;;5080449;28;20024;-73
2024/03/13 08:13:08;;;;;;;1.60;1.50;;;;;;;;;;5076147;28;20464;-73
2024/03/13 08:15:34;;;;;;;1.10;1.10;;;;;;;;;;5093403;28;20024;-74
2024/03/13 08:18:00;;;;;;;1.00;1.00;;;;;;;;;;5092239;28;20025;-74
2024/03/13 08:20:27;;;;;;;1.10;1.10;;;;;;;;;;5096996;27;20122;-74
2024/03/13 08:22:53;;;;;;;1.00;1.00;;;;;;;;;;5097168;27;20531;-74
2024/03/13 08:25:22;;;;;;;1.08;1.08;;;;;;;;;;5074585;28;20035;-74
2024/03/13 08:27:48;;;;;;;2.47;1.13;;;;;;;;;;5087546;28;20024;-75
2024/03/13 08:30:20;;;;;;;1.00;1.00;;;;;;;;;;5092478;28;20037;-75
2024/03/13 08:32:49;;;;;;;0.95;0.95;;;;;;;;;;5083389;28;20500;-76
2024/03/13 08:35:15;;;;;;;1.00;1.00;;;;;;;;;;5098983;28;20233;-75
2024/03/13 08:37:44;;;;;;;0.93;0.93;;;;;;;;;;5092622;28;20046;-75
2024/03/13 08:40:13;;;;;;;0.93;0.93;;;;;;;;;;5095563;28;20476;-75
2024/03/13 08:42:40;;;;;;;1.00;1.00;;;;;;;;;;5090330;28;20042;-74
2024/03/13 08:45:10;;;;;;;1.00;1.00;;;;;;;;;;5079468;28;20488;-75
2024/03/13 08:47:38;;;;;;;0.93;0.93;;;;;;;;;;5082557;28;20111;-75
2024/03/13 08:50:05;;;;;;;1.10;1.10;;;;;;;;;;5092874;28;20574;-75
2024/03/13 08:52:31;;;;;;;1.40;1.20;;;;;;;;;;5089442;28;20054;-74
2024/03/13 08:54:57;;;;;;;1.55;1.45;;;;;;;;;;5079868;28;20085;-74
2024/03/13 08:57:28;;;;;;;1.00;1.00;;;;;;;;;;5091363;28;20038;-74
2024/03/13 08:59:57;;;;;;;1.00;1.00;;;;;;;;;;5093724;28;20035;-75
2024/03/13 09:02:24;;;;;;;0.90;0.90;;;;;;;;;;5082185;28;20028;-75
2024/03/13 09:04:51;;;;;;;1.20;1.20;;;;;;;;;;5090291;28;20036;-74
2024/03/13 09:07:17;;;;;;;1.33;1.33;;;;;;;;;;5092803;27;20046;-74
2024/03/13 09:09:43;;;;;;;1.27;1.27;;;;;;;;;;5096416;28;20389;-73
2024/03/13 09:12:13;;;;;;;2.00;1.75;;;;;;;;;;5096832;28;20024;-74
2024/03/13 09:14:39;;;;;;;1.30;1.20;;;;;;;;;;5101955;28;20027;-74
2024/03/13 09:17:06;;;;;;;1.20;1.20;;;;;;;;;;5079039;28;20031;-75
2024/03/13 09:19:38;;;;;;;1.10;1.10;;;;;;;;;;5100426;28;20566;-75
2024/03/13 09:22:07;;;;;;;1.20;1.20;;;;;;;;;;5093970;28;20388;-74
2024/03/13 09:24:34;;;;;;;1.40;1.30;;;;;;;;;;5075148;28;20027;-74
2024/03/13 09:27:01;;;;;;;0.90;0.90;;;;;;;;;;5088049;28;20546;-74
2024/03/13 09:29:27;;;;;;;0.90;0.90;;;;;;;;;;5081395;28;20047;-74
2024/03/13 09:31:53;;;;;;;1.13;1.13;;;;;;;;;;5093969;28;20058;-75
2024/03/13 09:34:20;;;;;;;1.50;1.42;;;;;;;;;;5094150;28;20028;-74
2024/03/13 09:36:46;;;;;;;1.45;1.35;;;;;;;;;;5098219;28;20058;-76
2024/03/13 09:39:12;;;;;;;1.13;1.13;;;;;;;;;;5087785;28;20032;-74
2024/03/13 09:41:38;;;;;;;1.38;1.27;;;;;;;;;;5081396;28;20110;-74
2024/03/13 09:44:05;;;;;;;1.10;1.10;;;;;;;;;;5092620;28;20039;-75
2024/03/13 09:46:33;;;;;;;1.02;1.02;;;;;;;;;;5082266;28;20031;-74
2024/03/13 09:49:01;;;;;;;1.08;1.08;;;;;;;;;;5100154;27;20037;-75
2024/03/13 09:51:28;;;;;;;1.23;1.23;;;;;;;;;;5104220;27;20027;-74
2024/03/13 09:53:54;;;;;;;1.70;1.60;;;;;;;;;;5103070;27;20438;-75
2024/03/13 09:56:21;;;;;;;1.38;1.35;;;;;;;;;;5102428;27;20028;-74
2024/03/13 09:58:50;;;;;;;1.30;1.30;;;;;;;;;;5103051;27;20239;-75
2024/03/13 10:01:20;;;;;;;1.50;1.40;;;;;;;;;;5104830;27;20024;-74
2024/03/13 10:03:55;;;;;;;1.52;1.42;;;;;;;;;;5076492;27;20863;-75
2024/03/13 10:06:26;;;;;;;1.67;1.58;;;;;;;;;;5093686;27;20106;-74
2024/03/13 10:08:56;;;;;;;1.40;1.30;;;;;;;;;;5086043;27;20375;-74
2024/03/13 10:11:23;;;;;;;1.30;1.30;;;;;;;;;;5099365;27;20022;-75
2024/03/13 10:13:50;;;;;;;1.40;1.40;;;;;;;;;;5099476;28;20035;-74
2024/03/13 10:16:17;;;;;;;1.10;1.10;;;;;;;;;;5100153;27;20059;-74
2024/03/13 10:18:47;;;;;;;1.00;1.00;;;;;;;;;;5102600;27;20028;-74
2024/03/13 10:21:25;;;;;;;1.10;1.10;;;;;;;;;;5103112;27;20023;-73
2024/03/13 10:23:53;;;;;;;1.00;1.00;;;;;;;;;;5099687;27;20036;-74
2024/03/13 10:26:23;;;;;;;1.10;1.10;;;;;;;;;;5092997;28;20080;-74
2024/03/13 10:28:49;;;;;;;1.15;1.15;;;;;;;;;;5096775;27;20016;-74
2024/03/13 10:31:17;;;;;;;1.00;1.00;;;;;;;;;;5085189;28;20030;-74
2024/03/13 10:33:43;;;;;;;1.00;1.00;;;;;;;;;;5098159;27;20489;-74
2024/03/13 10:36:11;;;;;;;4.25;1.20;;;;;;;;;;5090390;27;20111;-74
2024/03/13 10:38:38;;;;;;;0.98;0.98;;;;;;;;;;5087956;28;20052;-74
2024/03/13 10:41:05;;;;;;;1.35;1.25;;;;;;;;;;5102991;28;20020;-73
2024/03/13 10:43:33;;;;;;;1.20;1.20;;;;;;;;;;5099231;27;20040;-74
2024/03/13 10:45:59;;;;;;;1.10;1.10;;;;;;;;;;5093483;28;20023;-75
2024/03/13 10:48:26;;;;;;;1.42;1.15;;;;;;;;;;5083401;28;20054;-75
2024/03/13 10:51:00;;;;;;;1.10;1.10;;;;;;;;;;5096129;27;20020;-74
2024/03/13 10:53:26;;;;;;;1.35;1.30;;;;;;;;;;5101946;27;20047;-75
2024/03/13 10:55:52;;;;;;;1.20;1.20;;;;;;;;;;5100208;27;20440;-75
2024/03/13 10:58:22;;;;;;;1.00;1.00;;;;;;;;;;5081792;28;20042;-74
2024/03/13 11:00:49;;;;;;;1.23;1.23;;;;;;;;;;5104380;27;20050;-74
2024/03/13 11:03:15;;;;;;;1.08;1.08;;;;;;;;;;5093805;28;20095;-75
2024/03/13 11:05:42;;;;;;;1.23;1.20;;;;;;;;;;5075188;27;20027;-74
2024/03/13 11:08:08;;;;;;;1.10;1.10;;;;;;;;;;5094458;28;20042;-74
2024/03/13 11:10:34;;;;;;;1.02;1.02;;;;;;;;;;5095479;28;20099;-75
2024/03/13 11:13:09;;;;;;;1.20;1.20;;;;;;;;;;5082516;28;20611;-74
2024/03/13 11:15:37;;;;;;;1.00;1.00;;;;;;;;;;5096207;28;20031;-75
2024/03/13 11:18:04;;;;;;;1.08;1.08;;;;;;;;;;5097838;28;20024;-75
2024/03/13 11:20:50;;;;;;;1.15;1.15;;;;;;;;;;5084811;28;20027;-74
2024/03/13 11:23:21;;;;;;;1.00;1.00;;;;;;;;;;5074747;28;20410;-75
2024/03/13 11:25:50;;;;;;;1.10;1.10;;;;;;;;;;5091946;28;20408;-73
2024/03/13 11:28:22;;;;;;;1.00;1.00;;;;;;;;;;5096304;28;20541;-75
2024/03/13 11:30:49;;;;;;;0.90;0.90;;;;;;;;;;5097803;27;20024;-74
2024/03/13 11:33:15;;;;;;;1.10;1.10;;;;;;;;;;5098479;28;20024;-74
2024/03/13 11:35:42;;;;;;;1.13;1.13;;;;;;;;;;5098239;28;20515;-74
2024/03/13 11:38:10;;;;;;;1.00;1.00;;;;;;;;;;5094691;28;20047;-75
2024/03/13 11:40:36;;;;;;;1.20;1.20;;;;;;;;;;5098641;27;20027;-74
2024/03/13 11:43:06;;;;;;;1.77;1.10;;;;;;;;;;5102483;27;20020;-74
2024/03/13 11:45:43;;;;;;;0.90;0.90;;;;;;;;;;5100590;28;20020;-75
2024/03/13 11:48:16;;;;;;;1.00;1.00;;;;;;;;;;5102684;28;20026;-75
2024/03/13 11:51:00;;;;;;;1.00;1.00;;;;;;;;;;5099269;27;20464;-75
2024/03/13 11:53:28;;;;;;;2.28;1.20;;;;;;;;;;5098820;28;20043;-74
2024/03/13 11:55:55;;;;;;;1.30;1.30;;;;;;;;;;5087623;28;20055;-74
2024/03/13 11:58:22;;;;;;;1.23;1.20;;;;;;;;;;5090720;28;20093;-74
2024/03/13 12:00:48;;;;;;;1.80;1.52;;;;;;;;;;5092381;27;20107;-74
2024/03/13 12:03:15;;;;;;;1.60;1.50;;;;;;;;;;5108727;28;20032;-74
2024/03/13 12:05:42;;;;;;;1.10;1.10;;;;;;;;;;5075398;28;20028;-74
2024/03/13 12:08:14;;;;;;;1.15;1.15;;;;;;;;;;5089103;28;20452;-75
2024/03/13 12:10:40;;;;;;;1.00;1.00;;;;;;;;;;5079350;28;20565;-75
2024/03/13 12:13:13;;;;;;;1.00;1.00;;;;;;;;;;5098345;27;20037;-75
2024/03/13 12:15:42;;;;;;;0.90;0.90;;;;;;;;;;5088616;28;20013;-74
2024/03/13 12:18:11;;;;;;;1.10;1.10;;;;;;;;;;5097668;27;20457;-74
2024/03/13 12:20:38;;;;;;;4.32;1.75;;;;;;;;;;5088842;28;20114;-75
2024/03/13 12:23:08;;;;;;;1.10;1.10;;;;;;;;;;5099073;28;20365;-74
2024/03/13 12:25:35;;;;;;;1.20;1.20;;;;;;;;;;5086115;28;20485;-74
2024/03/13 12:28:01;;;;;;;1.40;1.30;;;;;;;;;;5092299;28;20039;-75
2024/03/13 12:30:37;;;;;;;1.23;1.23;;;;;;;;;;5083119;28;20717;-74
2024/03/13 12:33:05;;;;;;;1.20;1.20;;;;;;;;;;5083791;28;20030;-74
2024/03/13 12:35:34;;;;;;;2.17;1.15;;;;;;;;;;5092872;27;20016;-74
2024/03/13 12:38:01;;;;;;;1.20;1.20;;;;;;;;;;5078515;28;20135;-75
2024/03/13 12:40:27;;;;;;;1.10;1.10;;;;;;;;;;5097028;28;20031;-74
2024/03/13 12:42:53;;;;;;;1.33;1.27;;;;;;;;;;5093484;27;20019;-74
2024/03/13 12:45:19;;;;;;;1.13;1.13;;;;;;;;;;5088175;28;20063;-74
2024/03/13 12:47:45;;;;;;;1.60;1.50;;;;;;;;;;5099252;28;20027;-74
2024/03/13 12:50:16;;;;;;;2.63;2.13;;;;;;;;;;5096738;28;20038;-74
2024/03/13 12:52:58;;;;;;;2.67;2.30;;;;;;;;;;5086751;28;20027;-74
2024/03/13 12:55:25;;;;;;;2.40;1.95;;;;;;;;;;5095882;27;20031;-74
2024/03/13 12:57:52;;;;;;;1.92;1.73;;;;;;;;;;5092930;28;20114;-74
2024/03/13 13:00:19;;;;;;;1.38;1.35;;;;;;;;;;5086515;28;20111;-74
2024/03/13 13:02:53;;;;;;;2.08;1.75;;;;;;;;;;5096684;28;20599;-73
2024/03/13 13:05:20;;;;;;;1.70;1.60;;;;;;;;;;5094272;28;20666;-74
2024/03/13 13:07:50;;;;;;;3.80;2.55;;;;;;;;;;5104927;28;20024;-73
2024/03/13 13:10:17;;;;;;;2.97;2.00;;;;;;;;;;5098230;28;20039;-73
2024/03/13 13:12:43;;;;;;;4.03;3.17;;;;;;;;;;5096619;28;20368;-70
2024/03/13 13:15:12;;;;;;;2.45;2.25;;;;;;;;;;5096726;28;20024;-72
2024/03/13 13:17:43;;;;;;;4.72;2.75;;;;;;;;;;5099360;28;20119;-75
2024/03/13 13:20:11;;;;;;;3.10;2.17;;;;;;;;;;5082926;28;20028;-74
2024/03/13 13:22:41;;;;;;;4.70;2.85;;;;;;;;;;5103008;28;20420;-75
2024/03/13 13:25:14;;;;;;;4.18;2.83;;;;;;;;;;5106686;28;20459;-74
2024/03/13 13:27:42;;;;;;;4.30;2.65;;;;;;;;;;5084605;28;20479;-74
2024/03/13 13:30:15;;;;;;;2.35;1.92;;;;;;;;;;5101642;28;20099;-75
2024/03/13 13:32:41;;;;;;;2.65;2.20;;;;;;;;;;5103562;28;20024;-75
2024/03/13 13:35:10;;;;;;;2.25;1.60;;;;;;;;;;5102795;28;20032;-75
2024/03/13 13:37:37;;;;;;;2.10;1.95;;;;;;;;;;5105467;28;20043;-75
2024/03/13 13:40:12;;;;;;;3.33;2.85;;;;;;;;;;5077228;28;20031;-74
2024/03/13 13:42:38;;;;;;;5.03;2.63;;;;;;;;;;5090026;28;20370;-75
2024/03/13 13:45:04;;;;;;;5.28;2.17;;;;;;;;;;5099681;28;20039;-74
2024/03/13 13:47:31;;;;;;;6.63;3.90;;;;;;;;;;5102145;28;20051;-74
2024/03/13 13:49:57;;;;;;;4.18;2.80;;;;;;;;;;5093494;28;20238;-74
2024/03/13 13:52:24;;;;;;;13.45;6.07;;;;;;;;;;5098121;28;20036;-74
2024/03/13 13:54:50;;;;;;;3.58;2.80;;;;;;;;;;5097400;28;20028;-74
2024/03/13 13:57:16;;;;;;;3.72;2.80;;;;;;;;;;5100627;28;20632;-74
2024/03/13 13:59:43;;;;;;;10.38;9.07;;;;;;;;;;5093876;28;20051;-73
2024/03/13 14:02:12;;;;;;;7.97;6.55;;;;;;;;;;5078902;28;20622;-74
2024/03/13 14:04:41;;;;;;;3.85;2.80;;;;;;;;;;5087196;28;20062;-73
2024/03/13 14:07:08;;;;;;;3.90;3.30;;;;;;;;;;5103934;28;20088;-74
2024/03/13 14:09:34;;;;;;;6.55;3.22;;;;;;;;;;5100089;28;20519;-73
2024/03/13 14:12:00;;;;;;;3.08;2.67;;;;;;;;;;5081520;28;20076;-74
2024/03/13 14:14:26;;;;;;;3.97;3.20;;;;;;;;;;5090545;28;20485;-73
2024/03/13 14:16:53;;;;;;;6.65;3.78;;;;;;;;;;5097120;28;20074;-73
2024/03/13 14:19:21;;;;;;;6.70;4.63;;;;;;;;;;5099006;28;20569;-74
2024/03/13 14:21:47;;;;;;;10.73;7.88;;;;;;;;;;5084413;28;20028;-72
2024/03/13 14:24:13;;;;;;;10.50;6.85;;;;;;;;;;5098574;28;20020;-74
2024/03/13 14:26:39;;;;;;;16.40;8.20;;;;;;;;;;5099550;28;20504;-76
2024/03/13 14:29:06;;;;;;;4.82;3.75;;;;;;;;;;5078740;28;20135;-74
2024/03/13 14:31:35;;;;;;;2.72;2.10;;;;;;;;;;5098491;28;20034;-73
2024/03/13 14:34:01;;;;;;;1.88;1.73;;;;;;;;;;5081792;28;20032;-73
2024/03/13 14:36:28;;;;;;;2.67;2.47;;;;;;;;;;5106007;28;20028;-73
2024/03/13 14:38:54;;;;;;;3.15;2.10;;;;;;;;;;5106044;27;20060;-73
2024/03/13 14:41:23;;;;;;;3.13;2.72;;;;;;;;;;5085484;28;20020;-74
2024/03/13 14:43:49;;;;;;;6.70;5.65;;;;;;;;;;5084726;28;20450;-74
2024/03/13 14:46:15;;;;;;;5.38;4.53;;;;;;;;;;5089356;28;20011;-74
2024/03/13 14:48:41;;;;;;;9.02;7.20;;;;;;;;;;5094038;28;20050;-74
2024/03/13 14:51:09;;;;;;;4.22;3.58;;;;;;;;;;5105099;28;20031;-73
2024/03/13 14:53:35;;;;;;;3.28;2.92;;;;;;;;;;5086200;28;20019;-73
2024/03/13 14:56:01;;;;;;;3.55;3.20;;;;;;;;;;5105188;28;20028;-73
2024/03/13 14:58:27;;;;;;;1.75;1.65;;;;;;;;;;5101610;28;20039;-74
2024/03/13 15:00:53;;;;;;;1.85;1.75;;;;;;;;;;5096212;27;20038;-74